Currently 57°F in Riverside (Presidential Park), California, USA
57°F
58°F / 56°F
1 mph S
0.00"
Sunday, April 5, 2020 2:29 AM PDT

Riverside (Presidential Park), California Weather Summary
Last 36 Hours

Temperature Winds Hourly Humidity Dewpoint
Time Report Norm Report Norm Max Gusts Precip. Rpt. Norm Rpt. Norm Pressure
1Sun 02:29 AM  56.5°F  55°F  1 mph S  1 mph  3 mph  0.00"  74%  73%  48°F  47°F  29.86"
3Sun 02:20 AM  56.4°F  56°F  2 mph S  1 mph  4 mph  ----  74%  73%  48°F  47°F  29.86"
Sun 02:00 AM  56.9°F  56°F  3 mph SW  1 mph  6 mph  0.00"  74%  72%  48°F  47°F  29.87"
Sun 01:00 AM  57.1°F  57°F  1 mph NW  1 mph  6 mph  0.00"  75%  70%  49°F  47°F  29.88"
2Sun 12:24 AM  57.6°F  58°F  3 mph W  2 mph  6 mph  ----  75%  69%  49°F  47°F  29.88"
Sun 12:00 AM  57.2°F  58°F  3 mph NW  2 mph  7 mph  0.00"  76%  67%  49°F  47°F  29.88"
Sat 11:00 PM  57.3°F  60°F  5 mph NW  2 mph  9 mph  0.00"  75%  64%  49°F  47°F  29.89"
Sat 10:00 PM  58.6°F  61°F  4 mph W  2 mph  7 mph  0.00"  74%  61%  50°F  47°F  29.88"
Sat 09:00 PM  59.4°F  64°F  5 mph NW  3 mph  9 mph  0.00"  72%  56%  50°F  47°F  29.87"
Sat 08:00 PM  61.4°F  66°F  5 mph W  4 mph  10 mph  0.00"  65%  52%  49°F  47°F  29.83"
Sat 07:00 PM  62.7°F  68°F  7 mph SW  6 mph  14 mph  0.00"  61%  47%  49°F  47°F  29.82"
Sat 06:00 PM  65.5°F  72°F  8 mph W  8 mph  15 mph  0.00"  56%  41%  49°F  46°F  29.81"
Sat 05:00 PM  67.1°F  74°F  8 mph W  8 mph  16 mph  0.00"  52%  37%  48°F  45°F  29.81"
Sat 04:00 PM  68.1°F  75°F  4 mph SW  7 mph  14 mph  0.00"  48%  35%  47°F  45°F  29.81"
Sat 03:00 PM  67.5°F  75°F  2 mph S  7 mph  10 mph  0.00"  48%  34%  46°F  44°F  29.83"
Sat 02:00 PM  66.0°F  75°F  2 mph NW  6 mph  11 mph  0.00"  51%  35%  47°F  44°F  29.85"
Sat 01:00 PM  64.0°F  73°F  3 mph SW  5 mph  8 mph  0.00"  57%  38%  48°F  45°F  29.87"
Sat 12:00 PM  61.4°F  71°F  calm  4 mph  7 mph  0.00"  63%  42%  48°F  46°F  29.90"
Sat 11:00 AM  60.8°F  68°F  2 mph W  3 mph  7 mph  0.00"  67%  49%  49°F  47°F  29.92"
Sat 10:00 AM  58.8°F  64°F  2 mph W  2 mph  7 mph  0.00"  72%  58%  50°F  48°F  29.92"
Sat 09:00 AM  56.1°F  60°F  1 mph NE  2 mph  4 mph  0.00"  80%  68%  50°F  49°F  29.91"
Sat 08:00 AM  54.8°F  55°F  1 mph SW  1 mph  5 mph  0.00"  82%  77%  49°F  48°F  29.90"
Sat 07:00 AM  54.3°F  53°F  2 mph SE  1 mph  5 mph  0.00"  81%  80%  48°F  47°F  29.88"
Sat 06:00 AM  54.0°F  53°F  2 mph SE  1 mph  4 mph  0.00"  82%  79%  49°F  47°F  29.86"
Sat 05:00 AM  53.8°F  54°F  2 mph SE  1 mph  5 mph  0.00"  84%  78%  49°F  47°F  29.87"
Sat 04:00 AM  54.7°F  54°F  3 mph E  1 mph  4 mph  0.00"  85%  76%  50°F  47°F  29.88"
Sat 03:00 AM  54.5°F  55°F  calm  1 mph  3 mph  0.00"  84%  75%  50°F  47°F  29.89"
Sat 02:00 AM  54.6°F  56°F  1 mph SE  1 mph  3 mph  0.00"  84%  73%  50°F  47°F  29.88"
Sat 01:00 AM  56.1°F  57°F  1 mph SW  1 mph  6 mph  0.00"  81%  71%  50°F  47°F  29.89"
Sat 12:00 AM  57.1°F  58°F  3 mph NW  2 mph  6 mph  0.00"  79%  69%  50°F  47°F  29.90"
Fri 11:00 PM  57.7°F  59°F  2 mph NW  2 mph  7 mph  0.00"  75%  66%  49°F  47°F  29.92"
Fri 10:00 PM  58.4°F  61°F  calm  2 mph  7 mph  0.00"  71%  62%  49°F  48°F  29.91"
Fri 09:00 PM  59.6°F  63°F  3 mph W  3 mph  9 mph  0.00"  68%  57%  49°F  47°F  29.89"
Fri 08:00 PM  61.4°F  65°F  6 mph W  4 mph  11 mph  0.00"  63%  52%  48°F  47°F  29.86"
Fri 07:00 PM  63.1°F  68°F  8 mph SW  6 mph  14 mph  0.00"  59%  48%  48°F  47°F  29.85"
Fri 06:00 PM  66.2°F  71°F  10 mph W  8 mph  15 mph  0.00"  54%  41%  48°F  46°F  29.84"
Fri 05:00 PM  67.5°F  74°F  5 mph SW  8 mph  18 mph  0.00"  50%  37%  47°F  45°F  29.84"
Fri 04:00 PM  68.2°F  75°F  6 mph W  8 mph  14 mph  0.00"  47%  35%  46°F  45°F  29.85"
Fri 03:00 PM  69.0°F  75°F  3 mph SW  7 mph  13 mph  0.00"  45%  35%  46°F  44°F  29.87"

  1. Current weather data. No green row appears if the current weather data is also the high or low for the current day.
  2. High temperature for the current day.
  3. Low temperature for the current day.

The Riverside (Presidential Park), California weather pages are a service of WeatherCurrents.
Copyright ©2020  WeatherCurrents. All rights reserved. - Submit questions and comments - Privacy Policy

This page automatically refreshes every 10 minutes.